sensor_id;sensor_type;location;lat;lon;timestamp;P1;durP1;ratioP1;P2;durP2;ratioP2
81725;SDS011;71135;16.738;-14.648;2023-07-29T07:59:50;8.85;;;2.97;;
81725;SDS011;71135;16.738;-14.648;2023-07-29T08:02:54;9.55;;;2.75;;
81725;SDS011;71135;16.738;-14.648;2023-07-29T08:28:02;5.45;;;1.90;;
81725;SDS011;71135;16.738;-14.648;2023-07-29T08:30:32;4.18;;;1.92;;
81725;SDS011;71135;16.738;-14.648;2023-07-29T08:33:01;5.32;;;2.17;;
81725;SDS011;71135;16.738;-14.648;2023-07-29T08:35:30;5.60;;;2.22;;
81725;SDS011;71135;16.738;-14.648;2023-07-29T08:38:02;4.85;;;1.77;;
81725;SDS011;71135;16.738;-14.648;2023-07-29T08:40:35;6.82;;;1.67;;
81725;SDS011;71135;16.738;-14.648;2023-07-29T08:43:09;3.33;;;1.55;;
81725;SDS011;71135;16.738;-14.648;2023-07-29T08:45:42;5.72;;;1.70;;
81725;SDS011;71135;16.738;-14.648;2023-07-29T08:48:13;4.82;;;2.05;;
81725;SDS011;71135;16.738;-14.648;2023-07-29T08:50:47;5.18;;;2.00;;
81725;SDS011;71135;16.738;-14.648;2023-07-29T08:53:18;3.50;;;2.17;;
81725;SDS011;71135;16.738;-14.648;2023-07-29T08:55:51;4.63;;;2.05;;
81725;SDS011;71135;16.738;-14.648;2023-07-29T09:00:51;2.97;;;1.95;;
81725;SDS011;71135;16.738;-14.648;2023-07-29T09:03:21;4.43;;;2.03;;
81725;SDS011;71135;16.738;-14.648;2023-07-29T09:05:50;5.30;;;2.20;;
81725;SDS011;71135;16.738;-14.648;2023-07-29T09:08:20;4.95;;;1.85;;
81725;SDS011;71135;16.738;-14.648;2023-07-29T09:10:54;4.50;;;1.95;;
81725;SDS011;71135;16.738;-14.648;2023-07-29T09:13:23;3.85;;;1.90;;
81725;SDS011;71135;16.738;-14.648;2023-07-29T09:15:54;2.20;;;1.50;;
81725;SDS011;71135;16.738;-14.648;2023-07-29T09:18:25;4.30;;;1.70;;
81725;SDS011;71135;16.738;-14.648;2023-07-29T09:20:56;4.03;;;1.65;;
81725;SDS011;71135;16.738;-14.648;2023-07-29T09:23:28;3.58;;;1.88;;
81725;SDS011;71135;16.738;-14.648;2023-07-29T09:26:09;5.57;;;1.42;;
81725;SDS011;71135;16.738;-14.648;2023-07-29T09:28:39;9.63;;;1.92;;
81725;SDS011;71135;16.738;-14.648;2023-07-29T09:31:14;2.63;;;1.30;;
81725;SDS011;71135;16.738;-14.648;2023-07-29T09:33:48;4.15;;;1.65;;
81725;SDS011;71135;16.738;-14.648;2023-07-29T09:36:17;4.07;;;1.30;;
81725;SDS011;71135;16.738;-14.648;2023-07-29T09:38:51;3.08;;;0.95;;
81725;SDS011;71135;16.738;-14.648;2023-07-29T09:43:58;4.65;;;0.90;;
81725;SDS011;71135;16.738;-14.648;2023-07-29T09:46:31;2.13;;;1.00;;
81725;SDS011;71135;16.738;-14.648;2023-07-29T09:49:02;6.25;;;1.67;;
81725;SDS011;71135;16.738;-14.648;2023-07-29T09:51:32;4.28;;;1.20;;
81725;SDS011;71135;16.738;-14.648;2023-07-29T09:54:06;7.22;;;1.48;;
81725;SDS011;71135;16.738;-14.648;2023-07-29T09:56:39;5.05;;;1.70;;
81725;SDS011;71135;16.738;-14.648;2023-07-29T09:59:12;3.30;;;1.05;;
81725;SDS011;71135;16.738;-14.648;2023-07-29T10:01:42;3.30;;;1.42;;
81725;SDS011;71135;16.738;-14.648;2023-07-29T10:04:11;3.70;;;1.35;;
81725;SDS011;71135;16.738;-14.648;2023-07-29T10:06:42;2.40;;;1.15;;
81725;SDS011;71135;16.738;-14.648;2023-07-29T10:09:11;4.32;;;1.05;;
81725;SDS011;71135;16.738;-14.648;2023-07-29T10:11:41;2.15;;;1.20;;
81725;SDS011;71135;16.738;-14.648;2023-07-29T10:14:08;4.22;;;1.33;;
81725;SDS011;71135;16.738;-14.648;2023-07-29T10:16:40;7.70;;;1.58;;
81725;SDS011;71135;16.738;-14.648;2023-07-29T10:19:11;5.82;;;1.88;;
81725;SDS011;71135;16.738;-14.648;2023-07-29T10:21:46;2.90;;;1.27;;
81725;SDS011;71135;16.738;-14.648;2023-07-29T10:24:18;3.83;;;1.35;;
81725;SDS011;71135;16.738;-14.648;2023-07-29T10:26:55;3.97;;;1.42;;
81725;SDS011;71135;16.738;-14.648;2023-07-29T10:29:28;4.13;;;1.20;;
81725;SDS011;71135;16.738;-14.648;2023-07-29T10:32:02;7.10;;;1.80;;
81725;SDS011;71135;16.738;-14.648;2023-07-29T10:34:34;5.30;;;1.58;;
81725;SDS011;71135;16.738;-14.648;2023-07-29T10:37:04;4.43;;;1.50;;
81725;SDS011;71135;16.738;-14.648;2023-07-29T10:39:37;3.78;;;1.45;;
81725;SDS011;71135;16.738;-14.648;2023-07-29T10:42:08;4.75;;;1.60;;
81725;SDS011;71135;16.738;-14.648;2023-07-29T10:44:47;2.45;;;1.23;;
81725;SDS011;71135;16.738;-14.648;2023-07-29T10:47:21;4.00;;;1.42;;
81725;SDS011;71135;16.738;-14.648;2023-07-29T10:49:53;5.47;;;1.35;;
81725;SDS011;71135;16.738;-14.648;2023-07-29T10:55:25;5.07;;;1.50;;
81725;SDS011;71135;16.738;-14.648;2023-07-29T10:58:11;3.75;;;1.40;;
81725;SDS011;71135;16.738;-14.648;2023-07-29T11:00:42;7.00;;;1.42;;
81725;SDS011;71135;16.738;-14.648;2023-07-29T11:03:15;3.95;;;1.13;;
81725;SDS011;71135;16.738;-14.648;2023-07-29T11:05:45;4.35;;;1.27;;
81725;SDS011;71135;16.738;-14.648;2023-07-29T11:08:19;8.10;;;1.50;;
81725;SDS011;71135;16.738;-14.648;2023-07-29T11:11:03;3.25;;;1.30;;
81725;SDS011;71135;16.738;-14.648;2023-07-29T11:13:33;2.85;;;1.35;;
81725;SDS011;71135;16.738;-14.648;2023-07-29T11:16:04;3.85;;;0.95;;
81725;SDS011;71135;16.738;-14.648;2023-07-29T11:18:36;5.78;;;1.33;;
81725;SDS011;71135;16.738;-14.648;2023-07-29T11:21:07;3.88;;;1.25;;
81725;SDS011;71135;16.738;-14.648;2023-07-29T11:23:36;4.18;;;1.42;;
81725;SDS011;71135;16.738;-14.648;2023-07-29T11:26:06;4.75;;;1.20;;
81725;SDS011;71135;16.738;-14.648;2023-07-29T11:28:37;7.90;;;1.27;;
81725;SDS011;71135;16.738;-14.648;2023-07-29T11:31:07;3.15;;;1.02;;
81725;SDS011;71135;16.738;-14.648;2023-07-29T11:33:40;4.38;;;1.55;;
81725;SDS011;71135;16.738;-14.648;2023-07-29T11:36:18;5.30;;;1.35;;
81725;SDS011;71135;16.738;-14.648;2023-07-29T11:38:49;3.47;;;1.08;;
81725;SDS011;71135;16.738;-14.648;2023-07-29T11:41:19;2.88;;;0.93;;
81725;SDS011;71135;16.738;-14.648;2023-07-29T11:43:49;2.95;;;1.17;;
81725;SDS011;71135;16.738;-14.648;2023-07-29T11:46:20;3.03;;;1.20;;
81725;SDS011;71135;16.738;-14.648;2023-07-29T11:48:53;4.20;;;1.27;;
81725;SDS011;71135;16.738;-14.648;2023-07-29T11:51:22;3.42;;;1.23;;
81725;SDS011;71135;16.738;-14.648;2023-07-29T11:53:52;3.30;;;1.42;;
81725;SDS011;71135;16.738;-14.648;2023-07-29T11:56:21;2.97;;;1.63;;
81725;SDS011;71135;16.738;-14.648;2023-07-29T11:58:51;4.65;;;1.48;;
81725;SDS011;71135;16.738;-14.648;2023-07-29T12:01:22;4.60;;;1.55;;
81725;SDS011;71135;16.738;-14.648;2023-07-29T12:03:54;2.78;;;1.38;;
81725;SDS011;71135;16.738;-14.648;2023-07-29T12:06:24;3.17;;;1.25;;
81725;SDS011;71135;16.738;-14.648;2023-07-29T12:08:54;5.57;;;1.20;;
81725;SDS011;71135;16.738;-14.648;2023-07-29T12:11:24;4.65;;;1.42;;
81725;SDS011;71135;16.738;-14.648;2023-07-29T12:13:53;3.88;;;1.25;;
81725;SDS011;71135;16.738;-14.648;2023-07-29T12:16:22;3.28;;;1.25;;
81725;SDS011;71135;16.738;-14.648;2023-07-29T12:18:54;3.70;;;1.25;;
81725;SDS011;71135;16.738;-14.648;2023-07-29T12:21:23;4.35;;;1.30;;
81725;SDS011;71135;16.738;-14.648;2023-07-29T12:23:53;6.10;;;1.52;;
81725;SDS011;71135;16.738;-14.648;2023-07-29T12:26:23;4.82;;;1.40;;
81725;SDS011;71135;16.738;-14.648;2023-07-29T12:28:56;3.17;;;1.58;;
81725;SDS011;71135;16.738;-14.648;2023-07-29T12:31:30;3.33;;;0.85;;
81725;SDS011;71135;16.738;-14.648;2023-07-29T12:34:03;3.22;;;1.23;;
81725;SDS011;71135;16.738;-14.648;2023-07-29T12:36:42;1.92;;;1.00;;
81725;SDS011;71135;16.738;-14.648;2023-07-29T12:39:15;2.53;;;0.93;;
81725;SDS011;71135;16.738;-14.648;2023-07-29T12:41:45;2.58;;;1.05;;
81725;SDS011;71135;16.738;-14.648;2023-07-29T12:44:15;4.20;;;1.00;;
81725;SDS011;71135;16.738;-14.648;2023-07-29T12:46:45;3.15;;;1.30;;
81725;SDS011;71135;16.738;-14.648;2023-07-29T13:11:07;3.58;;;1.67;;
81725;SDS011;71135;16.738;-14.648;2023-07-29T13:27:44;1.55;;;0.70;;
81725;SDS011;71135;16.738;-14.648;2023-07-29T14:25:37;4.00;;;1.05;;
81725;SDS011;71135;16.738;-14.648;2023-07-29T14:28:36;3.38;;;0.70;;
81725;SDS011;71135;16.738;-14.648;2023-07-29T14:31:29;1.85;;;0.85;;
81725;SDS011;71135;16.738;-14.648;2023-07-29T14:34:42;2.05;;;0.90;;
81725;SDS011;71135;16.738;-14.648;2023-07-29T14:37:36;4.15;;;0.75;;
81725;SDS011;71135;16.738;-14.648;2023-07-29T14:40:12;1.92;;;0.70;;
81725;SDS011;71135;16.738;-14.648;2023-07-29T14:42:53;2.65;;;0.82;;
81725;SDS011;71135;16.738;-14.648;2023-07-29T14:45:27;4.18;;;0.80;;
81725;SDS011;71135;16.738;-14.648;2023-07-29T14:48:53;2.42;;;0.93;;
81725;SDS011;71135;16.738;-14.648;2023-07-29T14:51:20;3.50;;;0.90;;
81725;SDS011;71135;16.738;-14.648;2023-07-29T14:54:12;2.30;;;0.80;;
81725;SDS011;71135;16.738;-14.648;2023-07-29T14:57:14;3.95;;;1.15;;
81725;SDS011;71135;16.738;-14.648;2023-07-29T15:00:18;2.75;;;0.93;;
81725;SDS011;71135;16.738;-14.648;2023-07-29T15:02:54;3.45;;;0.60;;
81725;SDS011;71135;16.738;-14.648;2023-07-29T15:05:30;3.42;;;0.70;;
81725;SDS011;71135;16.738;-14.648;2023-07-29T15:08:10;2.67;;;0.63;;
81725;SDS011;71135;16.738;-14.648;2023-07-29T15:10:53;2.83;;;0.60;;
81725;SDS011;71135;16.738;-14.648;2023-07-29T15:13:46;3.00;;;0.60;;
81725;SDS011;71135;16.738;-14.648;2023-07-29T15:17:58;2.75;;;0.68;;
81725;SDS011;71135;16.738;-14.648;2023-07-29T15:19:50;2.10;;;1.17;;
81725;SDS011;71135;16.738;-14.648;2023-07-29T15:22:22;3.80;;;1.67;;
81725;SDS011;71135;16.738;-14.648;2023-07-29T15:24:57;4.20;;;1.50;;
81725;SDS011;71135;16.738;-14.648;2023-07-29T15:27:27;2.78;;;1.33;;
81725;SDS011;71135;16.738;-14.648;2023-07-29T15:30:00;2.38;;;1.10;;
81725;SDS011;71135;16.738;-14.648;2023-07-29T15:32:30;3.42;;;0.75;;
81725;SDS011;71135;16.738;-14.648;2023-07-29T15:35:02;2.42;;;0.90;;
81725;SDS011;71135;16.738;-14.648;2023-07-29T15:37:31;3.88;;;1.00;;
81725;SDS011;71135;16.738;-14.648;2023-07-29T15:40:01;1.90;;;0.93;;
81725;SDS011;71135;16.738;-14.648;2023-07-29T15:42:30;2.60;;;0.73;;
81725;SDS011;71135;16.738;-14.648;2023-07-29T15:45:03;3.53;;;0.88;;
81725;SDS011;71135;16.738;-14.648;2023-07-29T15:50:02;3.03;;;1.20;;
81725;SDS011;71135;16.738;-14.648;2023-07-29T15:52:31;2.42;;;1.00;;
81725;SDS011;71135;16.738;-14.648;2023-07-29T15:55:01;2.20;;;0.90;;
81725;SDS011;71135;16.738;-14.648;2023-07-29T15:57:30;4.28;;;1.30;;
81725;SDS011;71135;16.738;-14.648;2023-07-29T15:59:59;6.75;;;1.45;;
81725;SDS011;71135;16.738;-14.648;2023-07-29T16:02:37;4.53;;;1.10;;
81725;SDS011;71135;16.738;-14.648;2023-07-29T16:05:06;3.20;;;1.25;;
81725;SDS011;71135;16.738;-14.648;2023-07-29T16:07:36;2.90;;;1.45;;
81725;SDS011;71135;16.738;-14.648;2023-07-29T16:10:06;3.25;;;0.98;;
81725;SDS011;71135;16.738;-14.648;2023-07-29T16:12:37;2.08;;;1.10;;
81725;SDS011;71135;16.738;-14.648;2023-07-29T16:15:09;3.38;;;0.90;;
81725;SDS011;71135;16.738;-14.648;2023-07-29T16:17:39;3.55;;;1.33;;
81725;SDS011;71135;16.738;-14.648;2023-07-29T16:20:09;4.05;;;1.65;;
81725;SDS011;71135;16.738;-14.648;2023-07-29T16:22:40;3.13;;;1.50;;
81725;SDS011;71135;16.738;-14.648;2023-07-29T16:25:09;4.18;;;1.20;;
81725;SDS011;71135;16.738;-14.648;2023-07-29T16:27:38;2.83;;;1.35;;
81725;SDS011;71135;16.738;-14.648;2023-07-29T16:30:10;3.05;;;1.42;;
81725;SDS011;71135;16.738;-14.648;2023-07-29T16:32:39;1.95;;;1.08;;
81725;SDS011;71135;16.738;-14.648;2023-07-29T16:35:09;6.53;;;1.40;;
81725;SDS011;71135;16.738;-14.648;2023-07-29T16:37:38;3.75;;;1.27;;
81725;SDS011;71135;16.738;-14.648;2023-07-29T16:40:08;3.08;;;1.25;;
81725;SDS011;71135;16.738;-14.648;2023-07-29T16:42:38;6.80;;;1.42;;
81725;SDS011;71135;16.738;-14.648;2023-07-29T16:45:10;4.10;;;1.23;;
81725;SDS011;71135;16.738;-14.648;2023-07-29T16:47:39;7.45;;;1.40;;
81725;SDS011;71135;16.738;-14.648;2023-07-29T16:50:09;2.88;;;1.13;;
81725;SDS011;71135;16.738;-14.648;2023-07-29T16:52:38;3.03;;;1.27;;
81725;SDS011;71135;16.738;-14.648;2023-07-29T16:55:08;5.47;;;1.55;;
81725;SDS011;71135;16.738;-14.648;2023-07-29T16:57:38;5.95;;;1.40;;
81725;SDS011;71135;16.738;-14.648;2023-07-29T17:00:10;3.58;;;1.23;;
81725;SDS011;71135;16.738;-14.648;2023-07-29T17:02:40;3.70;;;1.00;;
81725;SDS011;71135;16.738;-14.648;2023-07-29T17:05:09;2.72;;;1.25;;
81725;SDS011;71135;16.738;-14.648;2023-07-29T17:07:39;3.83;;;1.27;;
81725;SDS011;71135;16.738;-14.648;2023-07-29T17:10:08;2.72;;;1.13;;
81725;SDS011;71135;16.738;-14.648;2023-07-29T17:15:44;4.03;;;1.20;;
81725;SDS011;71135;16.738;-14.648;2023-07-29T17:18:13;3.97;;;1.30;;
81725;SDS011;71135;16.738;-14.648;2023-07-29T17:20:43;2.80;;;1.10;;
81725;SDS011;71135;16.738;-14.648;2023-07-29T17:23:16;3.95;;;1.00;;
81725;SDS011;71135;16.738;-14.648;2023-07-29T17:25:45;5.07;;;1.23;;
81725;SDS011;71135;16.738;-14.648;2023-07-29T17:28:14;2.95;;;1.05;;
81725;SDS011;71135;16.738;-14.648;2023-07-29T17:30:48;2.83;;;1.17;;
81725;SDS011;71135;16.738;-14.648;2023-07-29T17:33:17;4.38;;;1.20;;
81725;SDS011;71135;16.738;-14.648;2023-07-29T17:35:46;4.55;;;1.50;;
81725;SDS011;71135;16.738;-14.648;2023-07-29T17:38:16;4.03;;;1.30;;
81725;SDS011;71135;16.738;-14.648;2023-07-29T17:40:47;2.97;;;1.52;;
81725;SDS011;71135;16.738;-14.648;2023-07-29T17:45:49;4.70;;;1.40;;
81725;SDS011;71135;16.738;-14.648;2023-07-29T17:48:18;7.47;;;1.65;;
81725;SDS011;71135;16.738;-14.648;2023-07-29T17:50:47;3.30;;;1.23;;
81725;SDS011;71135;16.738;-14.648;2023-07-29T17:53:20;4.95;;;1.42;;
81725;SDS011;71135;16.738;-14.648;2023-07-29T17:55:49;3.42;;;1.50;;
81725;SDS011;71135;16.738;-14.648;2023-07-29T17:58:22;6.22;;;1.58;;
81725;SDS011;71135;16.738;-14.648;2023-07-29T18:00:54;5.55;;;1.60;;
81725;SDS011;71135;16.738;-14.648;2023-07-29T18:03:25;5.15;;;1.33;;
81725;SDS011;71135;16.738;-14.648;2023-07-29T18:05:54;5.45;;;1.75;;
81725;SDS011;71135;16.738;-14.648;2023-07-29T18:08:23;3.65;;;1.27;;
81725;SDS011;71135;16.738;-14.648;2023-07-29T18:10:53;3.95;;;1.33;;
81725;SDS011;71135;16.738;-14.648;2023-07-29T18:13:22;8.52;;;1.55;;
81725;SDS011;71135;16.738;-14.648;2023-07-29T18:15:55;4.82;;;1.50;;
81725;SDS011;71135;16.738;-14.648;2023-07-29T18:18:24;2.83;;;1.25;;
81725;SDS011;71135;16.738;-14.648;2023-07-29T18:20:54;4.60;;;1.42;;
81725;SDS011;71135;16.738;-14.648;2023-07-29T18:23:23;5.35;;;1.42;;
81725;SDS011;71135;16.738;-14.648;2023-07-29T18:25:53;4.97;;;1.42;;
81725;SDS011;71135;16.738;-14.648;2023-07-29T18:28:23;4.75;;;1.70;;
81725;SDS011;71135;16.738;-14.648;2023-07-29T18:30:55;3.58;;;1.52;;
81725;SDS011;71135;16.738;-14.648;2023-07-29T18:33:24;4.97;;;1.92;;
81725;SDS011;71135;16.738;-14.648;2023-07-29T18:35:53;5.78;;;1.65;;
81725;SDS011;71135;16.738;-14.648;2023-07-29T18:38:22;5.80;;;1.60;;
81725;SDS011;71135;16.738;-14.648;2023-07-29T18:40:51;6.53;;;1.80;;
81725;SDS011;71135;16.738;-14.648;2023-07-29T18:43:21;9.07;;;1.85;;
81725;SDS011;71135;16.738;-14.648;2023-07-29T18:45:50;5.45;;;1.60;;
81725;SDS011;71135;16.738;-14.648;2023-07-29T18:48:23;4.95;;;1.65;;
81725;SDS011;71135;16.738;-14.648;2023-07-29T18:50:52;5.13;;;1.70;;
81725;SDS011;71135;16.738;-14.648;2023-07-29T18:53:22;4.32;;;1.33;;
81725;SDS011;71135;16.738;-14.648;2023-07-29T18:55:52;5.50;;;1.98;;
81725;SDS011;71135;16.738;-14.648;2023-07-29T18:58:21;6.47;;;1.98;;
81725;SDS011;71135;16.738;-14.648;2023-07-29T19:00:50;6.75;;;2.28;;
81725;SDS011;71135;16.738;-14.648;2023-07-29T19:03:22;7.47;;;1.67;;
81725;SDS011;71135;16.738;-14.648;2023-07-29T19:05:54;7.47;;;1.75;;
81725;SDS011;71135;16.738;-14.648;2023-07-29T19:08:25;6.55;;;1.73;;
81725;SDS011;71135;16.738;-14.648;2023-07-29T19:14:38;6.03;;;1.77;;
81725;SDS011;71135;16.738;-14.648;2023-07-29T19:17:33;8.23;;;2.20;;
81725;SDS011;71135;16.738;-14.648;2023-07-29T19:20:15;4.78;;;1.65;;
81725;SDS011;71135;16.738;-14.648;2023-07-29T19:25:47;4.43;;;1.55;;
81725;SDS011;71135;16.738;-14.648;2023-07-29T19:28:28;8.20;;;1.90;;
81725;SDS011;71135;16.738;-14.648;2023-07-29T19:31:14;7.85;;;1.77;;
81725;SDS011;71135;16.738;-14.648;2023-07-29T19:34:15;6.68;;;1.70;;
81725;SDS011;71135;16.738;-14.648;2023-07-29T19:36:48;6.03;;;2.22;;
81725;SDS011;71135;16.738;-14.648;2023-07-29T19:39:17;5.53;;;1.90;;
81725;SDS011;71135;16.738;-14.648;2023-07-29T19:41:47;8.05;;;2.63;;
81725;SDS011;71135;16.738;-14.648;2023-07-29T19:44:16;10.18;;;2.47;;
81725;SDS011;71135;16.738;-14.648;2023-07-29T19:46:46;5.97;;;1.83;;
81725;SDS011;71135;16.738;-14.648;2023-07-29T19:49:15;6.20;;;2.03;;
81725;SDS011;71135;16.738;-14.648;2023-07-29T19:51:47;6.93;;;2.15;;
81725;SDS011;71135;16.738;-14.648;2023-07-29T19:54:16;5.95;;;2.13;;
81725;SDS011;71135;16.738;-14.648;2023-07-29T19:56:45;6.15;;;2.15;;
81725;SDS011;71135;16.738;-14.648;2023-07-29T19:59:15;4.82;;;1.90;;
81725;SDS011;71135;16.738;-14.648;2023-07-29T20:01:45;4.55;;;1.85;;
81725;SDS011;71135;16.738;-14.648;2023-07-29T20:04:14;9.20;;;2.10;;
81725;SDS011;71135;16.738;-14.648;2023-07-29T20:06:43;4.85;;;1.90;;
81725;SDS011;71135;16.738;-14.648;2023-07-29T20:09:15;6.90;;;3.03;;
81725;SDS011;71135;16.738;-14.648;2023-07-29T20:11:44;8.00;;;1.83;;
81725;SDS011;71135;16.738;-14.648;2023-07-29T20:14:26;6.22;;;2.03;;
81725;SDS011;71135;16.738;-14.648;2023-07-29T20:16:55;5.80;;;2.20;;
81725;SDS011;71135;16.738;-14.648;2023-07-29T20:28:57;7.82;;;2.85;;
81725;SDS011;71135;16.738;-14.648;2023-07-29T20:31:57;8.10;;;2.10;;
81725;SDS011;71135;16.738;-14.648;2023-07-29T20:34:32;10.13;;;2.70;;
81725;SDS011;71135;16.738;-14.648;2023-07-29T20:37:11;6.30;;;2.00;;
81725;SDS011;71135;16.738;-14.648;2023-07-29T20:39:40;8.68;;;2.33;;
81725;SDS011;71135;16.738;-14.648;2023-07-29T20:42:17;7.72;;;2.00;;
81725;SDS011;71135;16.738;-14.648;2023-07-29T20:45:15;4.47;;;1.45;;
81725;SDS011;71135;16.738;-14.648;2023-07-29T20:47:44;6.43;;;2.03;;
81725;SDS011;71135;16.738;-14.648;2023-07-29T20:50:40;6.15;;;2.28;;
81725;SDS011;71135;16.738;-14.648;2023-07-29T20:55:41;7.00;;;2.30;;
81725;SDS011;71135;16.738;-14.648;2023-07-29T20:58:15;10.95;;;1.88;;
81725;SDS011;71135;16.738;-14.648;2023-07-29T21:00:44;7.63;;;2.33;;
81725;SDS011;71135;16.738;-14.648;2023-07-29T21:03:15;7.82;;;2.47;;
81725;SDS011;71135;16.738;-14.648;2023-07-29T21:05:58;8.75;;;2.22;;
81725;SDS011;71135;16.738;-14.648;2023-07-29T21:08:31;10.07;;;2.70;;
81725;SDS011;71135;16.738;-14.648;2023-07-29T21:12:26;11.63;;;2.30;;
81725;SDS011;71135;16.738;-14.648;2023-07-29T21:15:16;11.05;;;2.70;;
81725;SDS011;71135;16.738;-14.648;2023-07-29T21:18:20;13.13;;;2.50;;
81725;SDS011;71135;16.738;-14.648;2023-07-29T21:24:44;10.40;;;2.22;;
81725;SDS011;71135;16.738;-14.648;2023-07-29T21:27:59;13.65;;;2.75;;
81725;SDS011;71135;16.738;-14.648;2023-07-29T21:30:40;12.60;;;2.55;;
81725;SDS011;71135;16.738;-14.648;2023-07-29T21:33:54;14.27;;;2.88;;
81725;SDS011;71135;16.738;-14.648;2023-07-29T21:36:28;16.38;;;2.70;;
81725;SDS011;71135;16.738;-14.648;2023-07-29T21:39:09;9.82;;;2.10;;
81725;SDS011;71135;16.738;-14.648;2023-07-29T21:41:49;10.27;;;2.30;;
81725;SDS011;71135;16.738;-14.648;2023-07-29T21:44:18;8.10;;;2.28;;
81725;SDS011;71135;16.738;-14.648;2023-07-29T21:46:50;11.63;;;3.15;;
81725;SDS011;71135;16.738;-14.648;2023-07-29T21:49:20;13.48;;;3.03;;
81725;SDS011;71135;16.738;-14.648;2023-07-29T21:51:49;8.98;;;2.80;;
81725;SDS011;71135;16.738;-14.648;2023-07-29T21:54:18;12.18;;;2.85;;
81725;SDS011;71135;16.738;-14.648;2023-07-29T21:56:48;13.20;;;2.88;;
81725;SDS011;71135;16.738;-14.648;2023-07-29T21:59:17;14.90;;;2.90;;
81725;SDS011;71135;16.738;-14.648;2023-07-29T22:01:46;11.10;;;2.95;;
81725;SDS011;71135;16.738;-14.648;2023-07-29T22:04:18;14.32;;;2.80;;
81725;SDS011;71135;16.738;-14.648;2023-07-29T22:06:47;15.25;;;2.90;;
81725;SDS011;71135;16.738;-14.648;2023-07-29T22:09:17;14.68;;;2.92;;
81725;SDS011;71135;16.738;-14.648;2023-07-29T22:11:46;12.00;;;2.97;;
81725;SDS011;71135;16.738;-14.648;2023-07-29T22:14:15;12.02;;;3.05;;
81725;SDS011;71135;16.738;-14.648;2023-07-29T22:16:45;12.77;;;2.65;;
81725;SDS011;71135;16.738;-14.648;2023-07-29T22:19:17;14.85;;;2.80;;
81725;SDS011;71135;16.738;-14.648;2023-07-29T22:21:46;11.98;;;2.42;;
81725;SDS011;71135;16.738;-14.648;2023-07-29T22:24:16;15.38;;;3.22;;
81725;SDS011;71135;16.738;-14.648;2023-07-29T22:26:46;9.15;;;2.85;;
81725;SDS011;71135;16.738;-14.648;2023-07-29T22:29:15;14.70;;;3.35;;
81725;SDS011;71135;16.738;-14.648;2023-07-29T22:31:44;10.63;;;3.08;;
81725;SDS011;71135;16.738;-14.648;2023-07-29T22:34:18;11.68;;;2.85;;
81725;SDS011;71135;16.738;-14.648;2023-07-29T22:36:48;15.02;;;3.13;;
81725;SDS011;71135;16.738;-14.648;2023-07-29T22:39:17;16.63;;;3.03;;
81725;SDS011;71135;16.738;-14.648;2023-07-29T22:41:46;8.45;;;2.58;;
81725;SDS011;71135;16.738;-14.648;2023-07-29T22:44:15;10.73;;;3.17;;
81725;SDS011;71135;16.738;-14.648;2023-07-29T22:46:45;12.63;;;3.15;;
81725;SDS011;71135;16.738;-14.648;2023-07-29T22:49:17;12.57;;;2.78;;
81725;SDS011;71135;16.738;-14.648;2023-07-29T22:51:46;14.52;;;3.00;;
81725;SDS011;71135;16.738;-14.648;2023-07-29T22:54:16;15.75;;;3.40;;
81725;SDS011;71135;16.738;-14.648;2023-07-29T22:56:45;15.00;;;3.05;;
81725;SDS011;71135;16.738;-14.648;2023-07-29T22:59:14;15.18;;;3.10;;
81725;SDS011;71135;16.738;-14.648;2023-07-29T23:01:44;17.23;;;3.17;;
81725;SDS011;71135;16.738;-14.648;2023-07-29T23:04:13;12.98;;;2.50;;
81725;SDS011;71135;16.738;-14.648;2023-07-29T23:06:45;14.88;;;2.40;;
81725;SDS011;71135;16.738;-14.648;2023-07-29T23:09:14;18.80;;;3.47;;
81725;SDS011;71135;16.738;-14.648;2023-07-29T23:14:10;21.27;;;3.63;;
81725;SDS011;71135;16.738;-14.648;2023-07-29T23:16:39;9.80;;;2.72;;
81725;SDS011;71135;16.738;-14.648;2023-07-29T23:19:09;13.20;;;2.38;;
81725;SDS011;71135;16.738;-14.648;2023-07-29T23:21:41;15.18;;;2.53;;
81725;SDS011;71135;16.738;-14.648;2023-07-29T23:24:10;13.48;;;2.70;;
81725;SDS011;71135;16.738;-14.648;2023-07-29T23:26:40;23.02;;;2.92;;
81725;SDS011;71135;16.738;-14.648;2023-07-29T23:29:10;9.65;;;2.42;;
81725;SDS011;71135;16.738;-14.648;2023-07-29T23:31:40;10.80;;;2.40;;
81725;SDS011;71135;16.738;-14.648;2023-07-29T23:34:09;10.00;;;1.95;;
81725;SDS011;71135;16.738;-14.648;2023-07-29T23:36:41;12.73;;;2.45;;
81725;SDS011;71135;16.738;-14.648;2023-07-29T23:39:10;14.65;;;3.22;;
81725;SDS011;71135;16.738;-14.648;2023-07-29T23:41:40;17.90;;;2.60;;
81725;SDS011;71135;16.738;-14.648;2023-07-29T23:44:09;10.93;;;2.40;;
81725;SDS011;71135;16.738;-14.648;2023-07-29T23:46:39;14.32;;;2.72;;
81725;SDS011;71135;16.738;-14.648;2023-07-29T23:49:08;13.00;;;1.92;;
81725;SDS011;71135;16.738;-14.648;2023-07-29T23:51:38;15.55;;;2.33;;
81725;SDS011;71135;16.738;-14.648;2023-07-29T23:54:10;15.57;;;2.42;;
81725;SDS011;71135;16.738;-14.648;2023-07-29T23:56:39;18.20;;;2.90;;
81725;SDS011;71135;16.738;-14.648;2023-07-29T23:59:08;13.90;;;2.05;;
